Time;durP1;ratioP1;P1;durP2;ratioP2;P2;SDS_P1;SDS_P2;PMS_P1;PMS_P2;Temp;Humidity;BMP_temperature;BMP_pressure;BME280_temperature;BME280_humidity;BME280_pressure;Samples;Min_cycle;Max_cycle;Signal;HPM_P1;HPM_P2
2022/08/23 00:02:06;;;;;;;5.57;2.20;;;20.90;60.00;;;;;;5009442;28;20049;-69
2022/08/23 00:04:39;;;;;;;8.20;2.08;;;20.80;59.70;;;;;;5006101;28;20129;-69
2022/08/23 00:07:08;;;;;;;5.55;1.90;;;20.80;60.40;;;;;;5015155;28;20050;-69
2022/08/23 00:09:35;;;;;;;5.25;1.88;;;20.80;60.20;;;;;;5014216;28;20131;-69
2022/08/23 00:12:12;;;;;;;7.72;1.80;;;20.80;60.00;;;;;;4995042;28;20045;-69
2022/08/23 00:14:42;;;;;;;6.20;1.70;;;20.70;60.60;;;;;;5014353;28;20053;-69
2022/08/23 00:17:09;;;;;;;3.60;2.03;;;20.70;60.20;;;;;;5007210;28;20479;-70
2022/08/23 00:19:36;;;;;;;4.22;1.65;;;20.70;60.00;;;;;;4995728;28;20050;-69
2022/08/23 00:22:04;;;;;;;4.40;1.53;;;20.70;60.30;;;;;;5008760;28;20421;-69
2022/08/23 00:24:31;;;;;;;4.60;1.90;;;20.60;60.70;;;;;;5009715;28;20092;-70
2022/08/23 00:27:13;;;;;;;4.57;2.00;;;20.60;61.10;;;;;;5013154;28;20053;-71
2022/08/23 00:29:46;;;;;;;5.65;1.80;;;20.60;61.30;;;;;;5009228;28;20042;-69
2022/08/23 00:32:15;;;;;;;3.65;1.73;;;20.50;61.20;;;;;;5011769;28;20049;-70
2022/08/23 00:34:42;;;;;;;5.82;1.98;;;20.50;61.70;;;;;;5018358;28;20041;-69
2022/08/23 00:37:10;;;;;;;5.20;2.13;;;20.40;61.70;;;;;;5016800;28;20050;-70
2022/08/23 00:39:37;;;;;;;6.97;2.00;;;20.40;61.90;;;;;;5011395;28;20083;-68
2022/08/23 00:47:47;;;;;;;6.55;1.45;;;20.20;62.40;;;;;;5015336;28;20056;-69
2022/08/23 00:50:33;;;;;;;5.00;2.00;;;20.20;62.40;;;;;;5010926;28;20042;-70
2022/08/23 00:53:20;;;;;;;5.13;1.92;;;20.10;63.20;;;;;;5009155;28;20133;-71
2022/08/23 00:55:48;;;;;;;6.13;1.83;;;20.10;63.00;;;;;;5029291;28;20176;-70
2022/08/23 00:58:17;;;;;;;;;;;20.10;63.50;;;;;;5013256;28;20100;-69
2022/08/23 01:00:44;;;;;;;6.97;1.98;;;20.00;63.70;;;;;;5035184;28;19910;-69
2022/08/23 01:03:11;;;;;;;7.15;2.00;;;20.00;63.30;;;;;;5018978;28;20455;-69
2022/08/23 01:05:46;;;;;;;3.40;1.80;;;19.90;63.30;;;;;;5047625;28;20057;-69
2022/08/23 01:08:13;;;;;;;6.88;1.98;;;19.80;63.50;;;;;;5017389;28;20106;-69
2022/08/23 01:10:46;;;;;;;5.13;1.88;;;19.70;63.70;;;;;;5013647;28;20077;-70
2022/08/23 01:13:22;;;;;;;5.30;2.10;;;19.70;63.50;;;;;;5047502;28;20419;-69
2022/08/23 01:16:02;;;;;;;5.22;2.10;;;19.70;63.50;;;;;;5011789;28;20045;-68
2022/08/23 01:18:28;;;;;;;5.05;1.98;;;19.60;63.90;;;;;;5017104;28;20147;-68
2022/08/23 01:21:32;;;;;;;4.80;1.88;;;19.50;64.20;;;;;;5013483;28;20041;-68
2022/08/23 01:24:01;;;;;;;5.47;2.05;;;19.50;64.80;;;;;;5019259;28;20045;-69
2022/08/23 01:26:33;;;;;;;4.93;2.25;;;19.50;64.70;;;;;;5019064;28;20042;-69
2022/08/23 01:29:02;;;;;;;5.32;2.17;;;19.50;64.40;;;;;;5021461;28;20046;-69
2022/08/23 01:31:29;;;;;;;4.32;1.70;;;19.40;64.70;;;;;;5021652;28;20045;-69
2022/08/23 01:34:01;;;;;;;5.03;2.33;;;19.30;64.80;;;;;;5027758;28;20046;-69
2022/08/23 01:36:28;;;;;;;4.63;1.90;;;19.30;65.40;;;;;;5008249;28;20132;-69
2022/08/23 01:38:55;;;;;;;6.93;2.08;;;19.20;65.30;;;;;;5019340;28;20076;-69
2022/08/23 01:41:22;;;;;;;6.78;2.13;;;19.20;65.40;;;;;;5011968;28;20038;-69
2022/08/23 01:43:50;;;;;;;4.00;1.90;;;19.20;65.90;;;;;;5020283;28;20437;-69
2022/08/23 01:46:20;;;;;;;4.10;1.80;;;19.10;65.90;;;;;;5014417;28;20872;-69
2022/08/23 01:48:47;;;;;;;4.40;1.90;;;19.10;66.50;;;;;;4999018;28;20042;-69
2022/08/23 01:51:15;;;;;;;7.95;2.40;;;19.10;65.90;;;;;;5045040;28;20357;-69
2022/08/23 01:53:42;;;;;;;7.50;2.05;;;19.20;65.90;;;;;;5010480;28;20148;-69
2022/08/23 01:56:09;;;;;;;5.20;1.90;;;19.20;65.50;;;;;;5026377;28;20073;-69
2022/08/23 01:58:36;;;;;;;6.45;2.00;;;19.20;65.70;;;;;;5016559;28;20060;-69
2022/08/23 02:01:03;;;;;;;4.20;1.88;;;19.10;66.10;;;;;;5015220;28;20041;-69
2022/08/23 02:03:31;;;;;;;5.25;1.90;;;19.00;66.40;;;;;;5018006;28;20057;-69
2022/08/23 02:05:57;;;;;;;4.47;2.20;;;18.90;66.80;;;;;;5014429;28;20053;-71
2022/08/23 02:11:15;;;;;;;6.00;1.92;;;18.80;66.90;;;;;;5009967;28;20069;-71
2022/08/23 02:13:43;;;;;;;6.68;2.00;;;18.80;67.30;;;;;;5023809;28;20471;-71
2022/08/23 02:16:10;;;;;;;6.10;1.90;;;18.70;68.00;;;;;;5030736;28;20114;-71
2022/08/23 02:18:37;;;;;;;9.00;2.00;;;18.60;67.70;;;;;;4995800;28;20046;-71
2022/08/23 02:21:03;;;;;;;6.53;2.10;;;18.60;68.00;;;;;;4994766;28;20085;-71
2022/08/23 02:23:30;;;;;;;6.22;2.30;;;18.60;68.50;;;;;;5020584;28;20091;-71
2022/08/23 02:25:57;;;;;;;5.25;2.00;;;18.60;68.40;;;;;;5013040;28;20092;-71
2022/08/23 02:28:24;;;;;;;5.88;2.10;;;18.60;67.80;;;;;;5011367;28;20503;-71
2022/08/23 02:30:52;;;;;;;3.92;1.85;;;18.70;67.50;;;;;;5002264;28;20352;-71
2022/08/23 02:33:19;;;;;;;8.32;2.15;;;18.60;68.10;;;;;;5010370;28;20487;-71
2022/08/23 02:35:47;;;;;;;6.25;2.10;;;18.60;68.10;;;;;;4996321;28;20050;-71
2022/08/23 02:38:15;;;;;;;4.55;1.95;;;18.50;68.50;;;;;;5016753;28;20053;-71
2022/08/23 02:40:42;;;;;;;5.15;2.28;;;18.50;68.80;;;;;;5013503;28;20053;-71
2022/08/23 02:43:09;;;;;;;5.78;2.28;;;18.50;67.90;;;;;;4997600;28;20057;-71
2022/08/23 02:45:36;;;;;;;8.40;2.40;;;18.50;68.70;;;;;;4980168;28;20053;-71
2022/08/23 02:48:04;;;;;;;5.22;2.20;;;18.40;68.60;;;;;;5019528;28;20056;-71
2022/08/23 02:50:31;;;;;;;5.63;2.35;;;18.40;69.00;;;;;;5000377;28;20379;-71
2022/08/23 02:52:58;;;;;;;3.85;2.30;;;18.40;69.80;;;;;;5020533;28;20129;-71
2022/08/23 02:55:24;;;;;;;6.07;2.42;;;18.30;69.90;;;;;;5011953;28;20509;-71
2022/08/23 02:57:52;;;;;;;5.82;2.13;;;18.20;69.90;;;;;;5025190;28;20049;-71
2022/08/23 03:00:18;;;;;;;6.82;2.60;;;18.10;70.50;;;;;;5009927;28;20053;-71
2022/08/23 03:02:45;;;;;;;5.95;2.35;;;18.00;70.80;;;;;;4996890;28;20475;-71
2022/08/23 03:05:12;;;;;;;5.78;2.67;;;18.10;70.80;;;;;;5016982;28;20060;-71
2022/08/23 03:07:39;;;;;;;6.35;2.60;;;18.10;70.80;;;;;;5017215;28;20137;-71
2022/08/23 03:10:08;;;;;;;4.18;2.50;;;18.10;70.70;;;;;;5018687;28;20468;-71
2022/08/23 03:12:35;;;;;;;6.95;2.85;;;18.10;70.60;;;;;;4994253;28;20057;-70
2022/08/23 03:15:02;;;;;;;5.80;2.72;;;18.10;71.20;;;;;;5014137;28;20084;-71
2022/08/23 03:17:29;;;;;;;6.97;2.53;;;18.10;70.80;;;;;;4989747;28;20045;-70
2022/08/23 03:19:56;;;;;;;4.20;2.30;;;18.00;71.10;;;;;;4993110;28;20300;-71
2022/08/23 03:22:24;;;;;;;4.65;2.75;;;17.90;71.20;;;;;;5011630;28;20042;-70
2022/08/23 03:24:51;;;;;;;8.60;3.10;;;17.90;73.00;;;;;;5009121;28;20046;-71
2022/08/23 03:27:18;;;;;;;6.40;3.03;;;17.90;72.70;;;;;;5013719;28;20057;-71
2022/08/23 03:29:45;;;;;;;6.10;2.75;;;17.90;72.70;;;;;;5016206;28;20478;-72
2022/08/23 03:32:12;;;;;;;6.53;3.22;;;17.90;72.80;;;;;;5013162;28;20042;-71
2022/08/23 03:34:39;;;;;;;6.20;3.20;;;17.90;72.50;;;;;;5039579;28;20931;-71
2022/08/23 03:37:06;;;;;;;6.82;3.38;;;17.90;72.50;;;;;;5009365;28;20619;-71
2022/08/23 03:39:33;;;;;;;7.38;2.83;;;17.90;73.20;;;;;;5009668;28;20045;-71
2022/08/23 03:42:00;;;;;;;7.85;3.00;;;17.80;73.50;;;;;;5009145;28;20473;-70
2022/08/23 03:44:27;;;;;;;5.72;3.05;;;17.70;74.40;;;;;;4997850;28;20412;-70
2022/08/23 03:46:54;;;;;;;7.13;3.13;;;17.70;73.90;;;;;;5002155;28;20088;-70
2022/08/23 03:49:21;;;;;;;8.05;2.67;;;17.80;74.20;;;;;;4993085;28;20479;-70
2022/08/23 03:51:48;;;;;;;7.75;2.60;;;17.70;74.20;;;;;;4992675;28;20054;-70
2022/08/23 03:54:16;;;;;;;6.65;3.10;;;17.70;73.50;;;;;;5012883;28;20121;-71
2022/08/23 03:57:01;;;;;;;6.18;2.47;;;17.80;74.10;;;;;;5015806;28;20054;-71
2022/08/23 03:59:29;;;;;;;7.63;3.05;;;17.70;73.70;;;;;;5014316;28;20056;-70
2022/08/23 04:01:56;;;;;;;7.80;2.85;;;17.50;74.90;;;;;;4992696;28;20077;-71
2022/08/23 04:04:23;;;;;;;5.78;2.70;;;17.50;74.70;;;;;;5014892;28;20196;-71
2022/08/23 04:06:50;;;;;;;8.75;3.60;;;17.50;74.70;;;;;;5020798;28;20050;-71
2022/08/23 04:09:17;;;;;;;7.40;3.45;;;17.50;74.30;;;;;;5009335;28;20045;-71
2022/08/23 04:11:44;;;;;;;6.22;3.05;;;17.50;74.70;;;;;;5008805;28;20049;-71
2022/08/23 04:14:12;;;;;;;6.30;2.80;;;17.40;74.60;;;;;;5010266;28;20050;-72
2022/08/23 04:16:39;;;;;;;9.93;3.65;;;17.40;74.80;;;;;;4995466;28;20073;-70
2022/08/23 04:19:12;;;;;;;9.55;3.30;;;17.30;75.10;;;;;;5021438;28;20068;-70
2022/08/23 04:21:41;;;;;;;7.97;3.60;;;17.40;74.90;;;;;;5008603;28;20129;-70
2022/08/23 04:24:08;;;;;;;7.25;3.60;;;17.40;75.30;;;;;;4995991;28;20064;-70
2022/08/23 04:26:35;;;;;;;7.68;3.70;;;17.40;74.60;;;;;;5022589;28;20068;-70
2022/08/23 04:29:03;;;;;;;8.93;3.20;;;17.30;74.80;;;;;;5019041;28;20558;-70
2022/08/23 04:31:32;;;;;;;9.43;3.45;;;17.30;75.30;;;;;;5053882;28;20056;-71
2022/08/23 04:33:58;;;;;;;7.07;3.58;;;17.20;75.40;;;;;;5014655;28;20070;-70
2022/08/23 04:36:25;;;;;;;7.05;3.67;;;17.20;75.00;;;;;;4986118;28;20091;-70
2022/08/23 04:38:51;;;;;;;6.97;3.10;;;17.20;75.10;;;;;;4992832;28;20413;-70
2022/08/23 04:44:04;;;;;;;7.22;3.67;;;17.30;75.20;;;;;;5008796;28;21072;-71
2022/08/23 04:46:31;;;;;;;7.22;3.83;;;17.40;75.20;;;;;;5013473;28;20146;-71
2022/08/23 04:48:58;;;;;;;9.35;4.03;;;17.40;75.60;;;;;;5018651;28;20037;-71
2022/08/23 04:51:25;;;;;;;8.52;3.60;;;17.40;75.40;;;;;;5010071;28;20042;-71
2022/08/23 04:53:52;;;;;;;8.80;3.33;;;17.40;75.80;;;;;;4982938;28;20041;-71
2022/08/23 04:56:19;;;;;;;9.73;3.92;;;17.30;76.20;;;;;;4999473;28;20045;-71
2022/08/23 04:58:46;;;;;;;9.45;3.38;;;17.10;77.00;;;;;;5018649;28;20052;-71
2022/08/23 05:01:14;;;;;;;6.63;3.22;;;17.20;76.90;;;;;;5008178;28;20049;-71
2022/08/23 05:03:42;;;;;;;7.95;3.53;;;17.10;76.80;;;;;;5013557;28;20053;-71
2022/08/23 05:06:08;;;;;;;7.18;3.13;;;17.10;76.70;;;;;;4991771;28;20065;-71
2022/08/23 05:08:35;;;;;;;6.25;3.33;;;17.10;77.10;;;;;;5006983;28;20467;-71
2022/08/23 05:11:06;;;;;;;9.85;3.53;;;17.20;76.50;;;;;;4991828;28;20173;-71
2022/08/23 05:13:33;;;;;;;10.75;3.70;;;17.30;76.40;;;;;;5014876;28;20069;-71
2022/08/23 05:15:59;;;;;;;6.97;3.72;;;17.30;76.90;;;;;;4996919;28;20046;-71
2022/08/23 05:18:26;;;;;;;9.13;3.53;;;17.30;76.70;;;;;;5016852;28;20040;-71
2022/08/23 05:20:59;;;;;;;10.25;4.03;;;17.40;76.60;;;;;;4991836;28;20042;-71
2022/08/23 05:23:26;;;;;;;7.35;3.38;;;17.40;76.70;;;;;;4996234;28;20107;-71
2022/08/23 05:25:53;;;;;;;8.73;3.38;;;17.40;76.40;;;;;;5012523;28;20061;-71
2022/08/23 05:28:26;;;;;;;4.97;3.20;;;17.50;76.40;;;;;;5015966;28;20148;-71
2022/08/23 05:31:03;;;;;;;7.93;4.10;;;17.60;75.80;;;;;;4994438;28;20129;-71
2022/08/23 05:33:31;;;;;;;9.13;3.83;;;17.60;75.80;;;;;;5025217;28;20056;-71
2022/08/23 05:35:58;;;;;;;9.93;4.00;;;17.60;76.00;;;;;;5007350;28;20080;-71
2022/08/23 05:38:25;;;;;;;6.65;3.55;;;17.60;76.10;;;;;;5040461;28;20041;-71
2022/08/23 05:40:53;;;;;;;8.15;3.83;;;17.60;76.10;;;;;;5011511;28;20045;-71
2022/08/23 05:43:20;;;;;;;10.50;4.03;;;17.70;76.10;;;;;;4995539;28;20579;-71
2022/08/23 05:45:48;;;;;;;7.18;3.33;;;17.70;75.60;;;;;;5003384;28;20053;-71
2022/08/23 05:48:15;;;;;;;8.00;3.97;;;17.80;76.20;;;;;;4996208;28;20046;-71
2022/08/23 05:50:41;;;;;;;9.00;4.45;;;17.70;76.50;;;;;;5020341;28;20128;-71
2022/08/23 05:53:09;;;;;;;8.25;4.25;;;17.80;76.50;;;;;;4994673;28;20494;-71
2022/08/23 05:55:37;;;;;;;6.10;3.93;;;17.80;76.70;;;;;;5044217;28;20125;-71
2022/08/23 05:58:03;;;;;;;7.93;3.85;;;17.80;76.40;;;;;;5010556;28;20050;-71
2022/08/23 06:00:30;;;;;;;6.35;4.28;;;17.90;76.50;;;;;;5017733;28;20054;-71
2022/08/23 06:02:58;;;;;;;9.68;4.97;;;17.90;76.60;;;;;;5010691;28;20102;-71
2022/08/23 06:05:25;;;;;;;10.48;4.63;;;18.00;76.40;;;;;;5021783;28;20076;-71
2022/08/23 06:07:53;;;;;;;9.65;4.32;;;18.00;76.10;;;;;;5005269;28;20117;-71
2022/08/23 06:10:20;;;;;;;6.38;3.90;;;18.10;76.60;;;;;;5028281;28;20053;-71
2022/08/23 06:12:47;;;;;;;7.78;4.30;;;18.10;75.90;;;;;;5010053;28;20148;-71
2022/08/23 06:15:14;;;;;;;8.70;3.92;;;18.20;76.20;;;;;;5027240;28;20514;-71
2022/08/23 06:17:41;;;;;;;7.15;4.05;;;18.20;75.80;;;;;;5025980;28;20398;-71
2022/08/23 06:20:09;;;;;;;11.68;3.75;;;18.30;75.40;;;;;;5013639;28;20059;-71
2022/08/23 06:22:36;;;;;;;8.07;4.17;;;18.30;75.40;;;;;;5018242;28;20045;-71
2022/08/23 06:25:03;;;;;;;7.90;4.18;;;18.30;75.00;;;;;;5002863;28;20271;-71
2022/08/23 06:27:29;;;;;;;9.60;3.80;;;18.40;75.20;;;;;;5009229;28;20543;-71
2022/08/23 06:29:56;;;;;;;9.10;4.28;;;18.40;74.90;;;;;;5010450;28;20160;-70
2022/08/23 06:32:23;;;;;;;7.40;3.70;;;18.50;74.90;;;;;;5022518;28;20076;-70
2022/08/23 06:34:50;;;;;;;9.77;4.10;;;18.50;75.00;;;;;;5031233;28;20045;-70
2022/08/23 06:37:18;;;;;;;10.93;4.07;;;18.50;74.90;;;;;;5015202;28;20099;-71
2022/08/23 06:39:45;;;;;;;;;;;18.60;75.30;;;;;;5015123;28;20695;-70
2022/08/23 06:42:14;;;;;;;6.30;3.40;;;18.70;74.70;;;;;;5040283;28;19913;-71
2022/08/23 06:44:41;;;;;;;7.13;3.83;;;18.70;74.60;;;;;;5010809;28;20065;-71
2022/08/23 06:47:08;;;;;;;9.07;4.00;;;18.80;75.10;;;;;;5028298;28;20049;-71
2022/08/23 06:49:35;;;;;;;10.48;3.50;;;18.90;74.90;;;;;;5047034;28;20129;-72
2022/08/23 06:52:03;;;;;;;8.95;3.42;;;18.90;74.60;;;;;;5004278;28;20071;-71
2022/08/23 06:54:33;;;;;;;13.48;4.18;;;19.00;74.60;;;;;;5021532;28;20041;-72
2022/08/23 06:57:01;;;;;;;9.07;3.63;;;19.00;74.40;;;;;;5034098;28;20073;-70
2022/08/23 06:59:28;;;;;;;9.67;3.47;;;19.10;74.40;;;;;;5012437;28;20056;-71
2022/08/23 07:02:02;;;;;;;5.55;3.40;;;19.20;74.10;;;;;;5015925;28;20077;-71
2022/08/23 07:04:31;;;;;;;6.90;3.40;;;19.30;74.30;;;;;;5020563;28;20045;-72
2022/08/23 07:06:58;;;;;;;8.45;3.20;;;19.30;74.00;;;;;;5026116;28;20449;-72
2022/08/23 07:09:25;;;;;;;7.10;3.08;;;19.40;74.20;;;;;;4993658;28;20107;-72
2022/08/23 07:11:53;;;;;;;8.15;3.08;;;19.40;74.20;;;;;;5020410;28;20486;-72
2022/08/23 07:14:21;;;;;;;7.18;3.58;;;19.60;74.40;;;;;;5021048;28;20053;-72
2022/08/23 07:16:50;;;;;;;4.87;2.50;;;19.60;73.70;;;;;;5013651;28;20049;-72
2022/08/23 07:19:19;;;;;;;6.30;2.28;;;19.80;73.40;;;;;;5004792;28;20055;-72
2022/08/23 07:21:51;;;;;;;3.97;2.05;;;19.90;71.60;;;;;;5015259;28;20487;-71
2022/08/23 07:24:18;;;;;;;5.85;2.45;;;20.00;70.90;;;;;;5028210;28;20052;-72
2022/08/23 07:26:47;;;;;;;8.35;3.13;;;20.20;69.30;;;;;;5015095;28;20502;-72
2022/08/23 07:29:15;;;;;;;5.38;2.10;;;20.30;68.90;;;;;;5025609;28;20446;-71
2022/08/23 07:31:51;;;;;;;6.67;2.10;;;20.40;68.40;;;;;;5016974;28;20037;-72
2022/08/23 07:34:18;;;;;;;4.25;1.73;;;20.50;68.00;;;;;;5020615;28;20079;-72
2022/08/23 07:36:47;;;;;;;4.70;2.38;;;20.60;67.00;;;;;;5021921;28;20626;-72
2022/08/23 07:39:13;;;;;;;5.15;1.90;;;20.80;66.50;;;;;;5011059;28;20057;-72
2022/08/23 07:41:40;;;;;;;3.75;1.45;;;20.90;65.70;;;;;;5023548;28;20634;-72
2022/08/23 07:44:11;;;;;;;4.63;2.67;;;20.90;64.40;;;;;;5046543;28;20049;-71
2022/08/23 07:46:41;;;;;;;4.30;1.73;;;21.10;64.30;;;;;;5005036;28;20201;-72
2022/08/23 07:49:08;;;;;;;3.67;1.33;;;21.10;64.20;;;;;;5023384;28;20045;-71
2022/08/23 07:51:36;;;;;;;5.00;1.70;;;21.10;64.10;;;;;;5023891;28;20046;-71
2022/08/23 07:54:06;;;;;;;4.75;1.80;;;21.20;63.70;;;;;;5028987;28;20099;-71
2022/08/23 07:56:33;;;;;;;3.20;1.40;;;21.20;64.10;;;;;;5006344;28;20122;-76
2022/08/23 07:59:01;;;;;;;4.45;1.58;;;21.30;63.70;;;;;;5007551;28;20050;-76
2022/08/23 08:01:28;;;;;;;3.83;1.67;;;21.40;64.10;;;;;;4991973;28;20053;-76
2022/08/23 08:03:59;;;;;;;2.97;1.50;;;21.50;63.30;;;;;;5023394;28;20123;-76
2022/08/23 08:06:30;;;;;;;3.90;1.30;;;21.60;61.70;;;;;;5004138;28;20138;-75
2022/08/23 08:08:58;;;;;;;2.67;1.33;;;21.60;61.70;;;;;;5012437;28;20060;-76
2022/08/23 08:11:25;;;;;;;;;;;21.70;61.10;;;;;;5022715;28;20049;-74
2022/08/23 08:13:55;;;;;;;8.73;1.40;;;21.80;62.00;;;;;;5021456;28;19936;-74
2022/08/23 08:16:34;;;;;;;5.55;1.27;;;21.80;61.80;;;;;;5012173;28;20051;-75
2022/08/23 08:19:01;;;;;;;2.65;1.20;;;21.80;61.70;;;;;;5037555;28;20133;-75
2022/08/23 08:21:41;;;;;;;2.30;1.20;;;21.90;61.30;;;;;;4992905;28;20050;-75
2022/08/23 08:24:09;;;;;;;6.18;1.20;;;22.00;61.80;;;;;;5008427;28;20334;-75
2022/08/23 08:26:35;;;;;;;3.97;1.40;;;22.10;61.10;;;;;;5009605;28;20479;-70
2022/08/23 08:29:02;;;;;;;3.13;1.73;;;22.10;61.40;;;;;;5013966;28;20152;-69
2022/08/23 08:31:29;;;;;;;5.65;1.80;;;22.20;60.60;;;;;;5023469;28;20475;-69
2022/08/23 08:33:56;;;;;;;4.47;1.80;;;22.30;60.00;;;;;;4997783;28;20050;-68
2022/08/23 08:36:42;;;;;;;3.25;1.58;;;22.30;59.90;;;;;;5021386;28;20045;-71
2022/08/23 08:39:14;;;;;;;4.28;1.88;;;22.40;59.40;;;;;;5025419;28;20048;-68
2022/08/23 08:41:58;;;;;;;4.93;1.60;;;22.40;59.80;;;;;;5009158;28;20631;-69
2022/08/23 08:44:47;;;;;;;4.25;1.60;;;22.50;59.10;;;;;;5024534;28;20059;-70
2022/08/23 08:47:15;;;;;;;5.25;1.27;;;22.50;59.40;;;;;;5006134;28;20049;-71
2022/08/23 08:49:59;;;;;;;5.93;3.65;;;22.50;59.00;;;;;;5020354;28;20045;-69
2022/08/23 08:52:37;;;;;;;4.82;3.08;;;22.60;59.50;;;;;;5012507;28;20044;-69
2022/08/23 08:55:08;;;;;;;4.32;1.77;;;22.70;59.20;;;;;;5058951;28;20049;-70
2022/08/23 08:57:43;;;;;;;3.22;1.90;;;22.70;58.50;;;;;;5039807;28;20136;-69
2022/08/23 09:00:35;;;;;;;4.38;1.88;;;22.70;59.00;;;;;;5024329;28;20107;-70
2022/08/23 09:03:08;;;;;;;3.90;1.60;;;22.80;59.20;;;;;;5030151;28;20049;-71
2022/08/23 09:05:38;;;;;;;3.33;2.08;;;22.90;59.30;;;;;;4996352;28;20124;-70
2022/08/23 09:08:42;;;;;;;5.55;2.20;;;22.90;59.50;;;;;;5020371;28;20748;-71
2022/08/23 09:11:35;;;;;;;4.00;1.70;;;23.00;59.30;;;;;;5014842;28;20542;-70
2022/08/23 09:14:36;;;;;;;4.88;2.00;;;23.00;58.80;;;;;;5015135;28;20041;-70
2022/08/23 09:17:18;;;;;;;3.53;1.50;;;23.10;59.90;;;;;;5006298;28;20046;-70
2022/08/23 09:19:45;;;;;;;6.05;1.75;;;23.20;59.60;;;;;;5024297;28;20155;-69
2022/08/23 09:22:13;;;;;;;2.27;1.30;;;23.30;59.00;;;;;;5042937;28;20045;-70
2022/08/23 09:24:40;;;;;;;6.30;1.85;;;23.40;59.00;;;;;;5008993;28;20049;-70
2022/08/23 09:27:08;;;;;;;3.25;1.48;;;23.40;59.00;;;;;;5023162;28;20053;-70
2022/08/23 09:29:36;;;;;;;4.53;1.57;;;23.50;58.30;;;;;;5026627;28;20711;-69
2022/08/23 09:32:06;;;;;;;3.05;1.17;;;23.60;58.20;;;;;;5021842;28;20060;-66
2022/08/23 09:34:35;;;;;;;5.28;1.58;;;23.70;57.60;;;;;;5011785;28;20042;-67
2022/08/23 09:37:16;;;;;;;8.85;1.50;;;23.70;58.50;;;;;;5022629;28;20057;-67
2022/08/23 09:40:12;;;;;;;3.65;1.35;;;23.70;58.10;;;;;;5021564;28;20056;-67
2022/08/23 09:42:40;;;;;;;4.53;1.30;;;23.90;56.60;;;;;;5018631;28;20054;-66
2022/08/23 09:45:35;;;;;;;4.20;1.38;;;23.90;56.90;;;;;;5014723;28;20045;-68
2022/08/23 09:48:03;;;;;;;4.00;1.38;;;24.00;56.00;;;;;;5023038;28;20053;-67
2022/08/23 09:51:05;;;;;;;6.82;1.40;;;24.00;56.10;;;;;;5048824;28;20102;-65
2022/08/23 09:53:32;;;;;;;2.05;1.10;;;24.10;57.30;;;;;;5021491;28;20475;-66
2022/08/23 09:56:10;;;;;;;3.10;1.60;;;24.20;56.50;;;;;;4989141;28;20119;-66
2022/08/23 09:58:40;;;;;;;2.83;1.02;;;24.20;56.50;;;;;;5004244;28;20045;-68
2022/08/23 10:01:13;;;;;;;2.65;1.35;;;24.30;55.40;;;;;;5025131;28;20456;-67
2022/08/23 10:03:43;;;;;;;4.38;1.10;;;24.40;55.50;;;;;;5009966;28;20471;-68
2022/08/23 10:06:14;;;;;;;2.85;1.10;;;24.50;54.70;;;;;;5026014;28;20079;-67
2022/08/23 10:08:52;;;;;;;6.68;1.00;;;24.50;55.10;;;;;;5030256;28;20045;-66
2022/08/23 10:11:28;;;;;;;4.43;1.38;;;24.60;55.70;;;;;;5025168;28;20041;-66
2022/08/23 10:13:56;;;;;;;4.75;1.25;;;24.70;54.90;;;;;;5017542;28;20057;-67
2022/08/23 10:16:45;;;;;;;4.97;1.13;;;24.70;54.50;;;;;;5055907;28;20160;-67
2022/08/23 10:19:42;;;;;;;2.83;1.30;;;24.80;54.00;;;;;;5034479;28;20060;-65
2022/08/23 10:22:25;;;;;;;2.47;1.20;;;24.90;52.90;;;;;;5030367;28;20139;-67
2022/08/23 10:25:03;;;;;;;4.55;1.30;;;25.00;52.60;;;;;;5036565;28;20048;-65
2022/08/23 10:31:10;;;;;;;3.42;1.60;;;25.10;52.40;;;;;;5018759;28;20089;-66
2022/08/23 10:33:58;;;;;;;2.75;1.08;;;25.20;53.80;;;;;;5028488;28;20475;-67
2022/08/23 10:36:37;;;;;;;3.42;1.33;;;25.20;52.50;;;;;;5037316;28;20048;-68
2022/08/23 10:39:27;;;;;;;3.33;1.10;;;25.30;52.00;;;;;;5018174;28;20070;-67
2022/08/23 10:42:17;;;;;;;7.38;1.20;;;25.40;52.80;;;;;;5040872;28;20068;-67
2022/08/23 10:45:02;;;;;;;3.60;1.13;;;25.60;51.90;;;;;;5022981;28;20373;-66
2022/08/23 10:47:41;;;;;;;3.00;1.17;;;25.60;50.70;;;;;;5031037;28;20049;-67
2022/08/23 10:50:11;;;;;;;8.10;1.20;;;25.60;50.20;;;;;;5025230;28;20250;-68
2022/08/23 10:53:17;;;;;;;3.10;1.15;;;25.60;50.70;;;;;;5022139;28;20053;-67
2022/08/23 10:56:01;;;;;;;5.55;1.30;;;25.70;51.70;;;;;;5028384;28;20053;-68
2022/08/23 10:58:31;;;;;;;1.92;1.08;;;25.80;51.90;;;;;;5010562;28;20060;-65
2022/08/23 11:00:57;;;;;;;3.22;1.20;;;25.90;48.70;;;;;;4994512;28;20049;-69
2022/08/23 11:03:57;;;;;;;2.70;1.00;;;25.90;50.00;;;;;;5009355;28;20046;-70
2022/08/23 11:06:44;;;;;;;4.18;0.88;;;26.00;51.10;;;;;;5056122;28;20605;-69
2022/08/23 11:09:16;;;;;;;2.40;1.00;;;26.20;49.90;;;;;;5012359;28;20056;-69
2022/08/23 11:12:06;;;;;;;1.35;0.73;;;26.20;50.30;;;;;;5027982;28;20049;-70
2022/08/23 11:14:40;;;;;;;4.70;0.95;;;26.30;48.80;;;;;;5030019;28;20042;-69
2022/08/23 11:17:32;;;;;;;2.47;1.02;;;26.40;48.00;;;;;;5030401;28;20040;-69
2022/08/23 11:20:08;;;;;;;5.28;0.80;;;26.50;49.30;;;;;;5015865;28;20053;-69
2022/08/23 11:22:56;;;;;;;2.80;0.90;;;26.60;49.60;;;;;;5007011;28;20057;-74
2022/08/23 11:25:24;;;;;;;3.80;0.90;;;26.70;47.90;;;;;;5022437;28;20047;-75
2022/08/23 11:28:30;;;;;;;2.78;1.15;;;26.70;47.80;;;;;;5024451;28;20128;-74
2022/08/23 11:31:28;;;;;;;6.13;1.08;;;26.80;46.80;;;;;;5026367;28;20056;-76
2022/08/23 11:34:05;;;;;;;1.77;0.98;;;26.70;46.30;;;;;;5026110;28;20041;-75
2022/08/23 11:36:32;;;;;;;4.07;1.02;;;26.90;47.70;;;;;;5023858;28;20049;-75
2022/08/23 11:39:11;;;;;;;4.90;1.20;;;27.00;47.10;;;;;;5006392;28;20254;-74
2022/08/23 11:41:59;;;;;;;6.43;1.20;;;27.10;45.70;;;;;;5001254;28;20049;-75
2022/08/23 11:44:47;;;;;;;1.58;0.85;;;27.00;45.70;;;;;;5024015;28;20042;-74
2022/08/23 11:47:14;;;;;;;2.72;0.90;;;27.10;44.60;;;;;;5036688;28;20145;-74
2022/08/23 11:50:11;;;;;;;3.13;1.00;;;27.20;44.60;;;;;;5027792;28;20440;-75
2022/08/23 11:52:56;;;;;;;2.07;1.00;;;27.20;45.70;;;;;;5025036;28;20053;-73
2022/08/23 11:55:38;;;;;;;3.00;0.98;;;27.30;45.20;;;;;;5034003;28;20037;-72
2022/08/23 11:58:31;;;;;;;3.53;1.20;;;27.50;44.90;;;;;;5019801;28;20080;-73
2022/08/23 12:01:12;;;;;;;5.10;1.27;;;27.60;45.80;;;;;;5029214;28;20052;-74
2022/08/23 12:03:58;;;;;;;2.70;0.85;;;27.50;42.60;;;;;;4987360;28;20141;-74
2022/08/23 12:06:48;;;;;;;4.50;1.23;;;27.60;44.20;;;;;;5013769;28;20112;-74
2022/08/23 12:09:23;;;;;;;5.57;1.10;;;27.60;43.00;;;;;;5020480;28;20049;-75
2022/08/23 12:11:59;;;;;;;4.82;1.10;;;27.80;45.30;;;;;;5004764;28;20049;-70
2022/08/23 12:14:57;;;;;;;2.35;0.90;;;27.90;43.50;;;;;;5046523;28;20051;-72
2022/08/23 12:17:26;;;;;;;1.98;0.75;;;28.10;44.00;;;;;;4998349;28;20598;-71
2022/08/23 12:20:10;;;;;;;4.05;1.13;;;28.20;43.80;;;;;;5030298;28;20524;-71
2022/08/23 12:23:11;;;;;;;2.13;1.00;;;28.20;43.00;;;;;;5033897;28;20060;-72
2022/08/23 12:25:39;;;;;;;3.20;0.95;;;28.30;43.60;;;;;;5014854;28;20370;-72
2022/08/23 12:28:28;;;;;;;7.13;1.38;;;28.30;42.60;;;;;;5025279;28;20057;-71
2022/08/23 12:30:57;;;;;;;3.17;0.90;;;28.40;43.70;;;;;;5032718;28;20072;-70
2022/08/23 12:33:38;;;;;;;3.53;1.10;;;28.50;42.10;;;;;;5013035;28;20042;-71
2022/08/23 12:36:17;;;;;;;2.35;1.02;;;28.70;42.60;;;;;;5020845;28;20045;-72
2022/08/23 12:39:18;;;;;;;4.00;1.15;;;28.80;42.60;;;;;;5020839;28;20044;-72
2022/08/23 12:42:02;;;;;;;3.08;1.10;;;28.90;43.70;;;;;;5021383;28;20050;-72
2022/08/23 12:44:31;;;;;;;3.47;1.00;;;29.00;42.30;;;;;;5030172;28;20075;-72
2022/08/23 12:47:29;;;;;;;3.65;1.20;;;29.10;43.70;;;;;;5033607;28;20049;-72
2022/08/23 12:49:58;;;;;;;4.45;1.15;;;29.10;42.40;;;;;;5023206;28;20483;-71
2022/08/23 12:52:27;;;;;;;3.72;1.10;;;29.00;42.70;;;;;;5051873;28;20037;-72
2022/08/23 12:54:56;;;;;;;8.50;1.10;;;29.20;42.50;;;;;;5014400;28;20435;-71
2022/08/23 12:57:37;;;;;;;3.50;1.10;;;29.20;40.30;;;;;;5002202;28;20045;-72
2022/08/23 13:00:26;;;;;;;8.98;1.83;;;29.10;40.70;;;;;;5007109;28;20057;-71
2022/08/23 13:03:18;;;;;;;4.72;1.05;;;29.20;41.60;;;;;;5030827;28;20045;-71
2022/08/23 13:05:55;;;;;;;2.25;0.90;;;29.30;41.60;;;;;;5034939;28;20060;-71
2022/08/23 13:08:25;;;;;;;3.72;0.90;;;29.40;41.80;;;;;;5004926;28;20455;-71
2022/08/23 13:10:53;;;;;;;3.85;1.00;;;29.50;41.80;;;;;;4999287;28;20045;-72
2022/08/23 13:13:22;;;;;;;3.27;1.33;;;29.60;41.00;;;;;;5026042;28;20521;-72
2022/08/23 13:16:00;;;;;;;3.83;1.15;;;29.50;40.00;;;;;;4996015;28;20859;-72
2022/08/23 13:18:41;;;;;;;6.35;0.93;;;29.60;40.70;;;;;;5029446;28;20110;-71
2022/08/23 13:21:24;;;;;;;4.22;0.80;;;29.80;40.60;;;;;;5032145;28;20047;-71
2022/08/23 13:23:51;;;;;;;3.47;0.90;;;30.00;41.20;;;;;;5014275;28;20128;-72
2022/08/23 13:26:36;;;;;;;2.10;1.08;;;30.10;41.20;;;;;;5007887;28;20057;-71
2022/08/23 13:29:14;;;;;;;3.22;0.90;;;30.20;40.00;;;;;;5022169;28;20091;-73
2022/08/23 13:32:00;;;;;;;6.82;1.05;;;30.70;38.90;;;;;;5029970;28;20052;-72